.
WxDataArchive / Data Records for 2009-12-03
2009-12-02 December 2009 2009-12-04

Data Records for Thursday, 03 December 2009

Time	Temp	Chill	HIndex	Humid	Dewpt	 Wind 	HiWind	WindDir	Rain 	Barom 
-----	----	-----	------	-----	-----	------	------	-------	-----	----- 
00:00	38.9	38.9	38.9	93	37.1	1	5	292	0.00	29.420 
00:05	38.8	38.8	38.8	93	37.0	1	4	270	0.00	29.420 
00:10	38.8	38.8	38.8	93	37.0	1	4	315	0.00	29.420 
00:15	38.8	38.8	38.8	93	37.0	1	5	270	0.00	29.421 
00:20	38.8	38.8	38.8	93	37.0	1	5	338	0.00	29.421 
00:25	38.8	38.8	38.8	93	37.0	1	5	338	0.00	29.421 
00:30	38.8	38.8	38.8	93	37.0	2	4	338	0.00	29.424 
00:35	38.8	38.8	38.8	93	37.0	2	6	338	0.00	29.424 
00:40	38.8	38.8	38.8	93	37.0	1	5	270	0.00	29.424 
00:45	38.8	38.8	38.8	93	37.0	1	5	292	0.00	29.425 
00:50	38.8	38.8	38.8	93	37.0	2	7	292	0.00	29.425 
00:55	38.8	38.8	38.8	93	37.0	2	5	338	0.00	29.425 
01:00	38.6	38.6	38.6	93	36.8	2	6	292	0.00	29.430 
01:05	38.6	38.6	38.6	93	36.8	2	7	270	0.01	29.430 
01:10	38.6	38.6	38.6	93	36.8	2	6	0	0.00	29.430 
01:15	38.6	38.6	38.6	93	36.8	2	5	338	0.01	29.439 
01:20	38.6	38.6	38.6	93	36.8	3	11	292	0.00	29.439 
01:25	38.6	38.6	38.6	93	36.8	3	9	270	0.00	29.439 
01:30	38.6	38.6	38.6	93	36.8	3	11	315	0.01	29.456 
01:35	38.5	38.5	38.5	93	36.7	2	6	338	0.00	29.456 
01:40	38.5	38.5	38.5	93	36.7	2	5	292	0.00	29.456 
01:45	38.3	38.3	38.3	92	36.2	3	7	270	0.00	29.463 
01:50	38.2	38.2	38.2	92	36.1	2	9	338	0.00	29.463 
01:55	38.2	38.2	38.2	92	36.1	3	12	270	0.00	29.463 
02:00	38.2	38.2	38.2	92	36.1	2	5	315	0.00	29.474 
02:05	38.2	38.2	38.2	92	36.1	2	5	315	0.00	29.474 
02:10	38.2	38.2	38.2	92	36.1	2	5	315	0.00	29.474 
02:15	38.3	38.3	38.3	92	36.2	3	7	315	0.01	29.495 
02:20	38.3	38.3	38.3	92	36.2	3	6	315	0.00	29.495 
02:25	38.3	38.3	38.3	92	36.2	3	10	315	0.00	29.495 
02:30	38.5	38.5	38.5	92	36.4	2	6	315	0.00	29.506 
02:35	38.6	38.6	38.6	92	36.5	1	4	338	0.00	29.506 
02:40	38.6	38.6	38.6	92	36.5	2	5	315	0.00	29.506 
02:45	38.8	38.8	38.8	92	36.7	2	5	292	0.00	29.519 
02:50	38.8	38.8	38.8	93	37.0	2	5	292	0.00	29.519 
02:55	38.9	38.9	38.9	93	37.1	2	5	292	0.00	29.519 
03:00	39.1	39.1	39.1	93	37.2	2	5	338	0.00	29.526 
03:05	39.2	39.2	39.2	93	37.3	2	6	270	0.00	29.526 
03:10	39.2	39.2	39.2	92	37.1	1	5	292	0.00	29.526 
03:15	39.2	39.2	39.2	92	37.1	2	5	292	0.00	29.538 
03:20	39.3	39.3	39.3	92	37.2	2	4	270	0.00	29.538 
03:25	39.3	39.3	39.3	92	37.2	2	4	292	0.00	29.538 
03:30	39.5	39.5	39.5	92	37.4	2	6	292	0.00	29.558 
03:35	39.5	39.5	39.5	92	37.4	2	6	292	0.00	29.558 
03:40	39.5	39.5	39.5	92	37.4	2	5	292	0.00	29.558 
03:45	39.5	39.5	39.5	92	37.4	2	5	292	0.00	29.568 
03:50	39.5	39.5	39.5	92	37.4	1	4	292	0.00	29.568 
03:55	39.5	39.5	39.5	92	37.4	2	6	338	0.00	29.568 
04:00	39.5	39.5	39.5	91	37.1	2	4	292	0.00	29.570 
04:05	39.5	39.5	39.5	91	37.1	2	5	338	0.00	29.570 
04:10	39.5	39.5	39.5	91	37.1	1	5	338	0.00	29.570 
04:15	39.5	39.5	39.5	91	37.1	2	4	315	0.00	29.583 
04:20	39.5	39.5	39.5	91	37.1	1	4	315	0.00	29.583 
04:25	39.5	39.5	39.5	91	37.1	2	6	315	0.00	29.583 
04:30	39.5	39.5	39.5	90	36.8	2	4	270	0.00	29.595 
04:35	39.3	39.3	39.3	90	36.6	2	7	270	0.00	29.595 
04:40	39.3	39.3	39.3	90	36.6	2	5	270	0.00	29.595 
04:45	39.2	39.2	39.2	90	36.5	1	6	315	0.00	29.602 
04:50	39.2	39.2	39.2	90	36.5	1	4	248	0.00	29.602 
04:55	39.2	39.2	39.2	90	36.5	1	3	338	0.00	29.602 
05:00	39.2	39.2	39.2	89	36.2	2	5	338	0.00	29.612 
05:05	39.2	39.2	39.2	89	36.2	1	3	338	0.00	29.612 
05:10	39.2	39.2	39.2	89	36.2	1	3	292	0.00	29.612 
05:15	39.2	39.2	39.2	89	36.2	1	3	292	0.00	29.618 
05:20	39.1	39.1	39.1	89	36.1	2	4	248	0.00	29.618 
05:25	39.1	39.1	39.1	89	36.1	1	3	338	0.00	29.618 
05:30	39.1	39.1	39.1	89	36.1	1	3	248	0.00	29.633 
05:35	39.1	39.1	39.1	89	36.1	1	4	315	0.00	29.633 
05:40	39.1	39.1	39.1	89	36.1	1	4	338	0.00	29.633 
05:45	39.1	39.1	39.1	89	36.1	1	5	292	0.00	29.638 
05:50	39.1	39.1	39.1	89	36.1	1	4	292	0.00	29.638 
05:55	39.1	39.1	39.1	89	36.1	0	2	292	0.00	29.638 
06:00	38.9	38.9	38.9	89	35.9	1	2	315	0.00	29.649 
06:05	38.9	38.9	38.9	89	35.9	1	3	315	0.00	29.649 
06:10	38.9	38.9	38.9	89	35.9	1	3	270	0.00	29.649 
06:15	38.9	38.9	38.9	89	35.9	1	3	292	0.00	29.665 
06:20	38.9	38.9	38.9	89	35.9	1	4	292	0.00	29.665 
06:25	38.8	38.8	38.8	88	35.6	2	5	292	0.00	29.665 
06:30	38.9	38.9	38.9	88	35.7	1	4	292	0.00	29.681 
06:35	38.9	38.9	38.9	88	35.7	1	6	292	0.00	29.681 
06:40	38.9	38.9	38.9	88	35.7	1	3	292	0.00	29.681 
06:45	38.9	38.9	38.9	88	35.7	2	6	248	0.00	29.696 
06:50	38.8	38.8	38.8	88	35.6	2	6	270	0.00	29.696 
06:55	38.9	38.9	38.9	88	35.7	1	4	248	0.00	29.696 
07:00	38.9	38.9	38.9	88	35.7	1	3	248	0.00	29.707 
07:05	38.9	38.9	38.9	88	35.7	2	4	248	0.00	29.707 
07:10	38.9	38.9	38.9	88	35.7	2	5	270	0.00	29.707 
07:15	38.9	38.9	38.9	88	35.7	2	3	248	0.00	29.710 
07:20	38.9	38.9	38.9	88	35.7	2	5	248	0.00	29.710 
07:25	38.8	38.8	38.8	88	35.6	1	4	292	0.00	29.710 
07:30	38.6	38.6	38.6	88	35.4	2	5	248	0.00	29.722 
07:35	38.6	38.6	38.6	88	35.4	1	3	248	0.00	29.722 
07:40	38.8	38.8	38.8	88	35.6	1	5	315	0.00	29.722 
07:45	38.8	38.8	38.8	88	35.6	2	5	315	0.00	29.737 
07:50	38.8	38.8	38.8	87	35.3	2	5	338	0.00	29.737 
07:55	38.6	38.6	38.6	87	35.1	2	6	270	0.00	29.737 
08:00	38.6	38.6	38.6	86	34.8	2	6	315	0.00	29.744 
08:05	38.6	38.6	38.6	86	34.8	1	4	248	0.00	29.744 
08:10	38.5	38.5	38.5	86	34.7	2	4	270	0.00	29.744 
08:15	38.3	38.3	38.3	85	34.2	1	3	315	0.00	29.759 
08:20	38.3	38.3	38.3	86	34.5	1	4	248	0.00	29.759 
08:25	38.3	38.3	38.3	86	34.5	1	2	248	0.00	29.759 
08:30	38.3	38.3	38.3	86	34.5	1	2	248	0.00	29.767 
08:35	38.3	38.3	38.3	86	34.5	1	3	248	0.00	29.767 
08:40	38.2	38.2	38.2	86	34.4	1	2	248	0.00	29.767 
08:45	38.3	38.3	38.3	87	34.8	1	3	248	0.00	29.782 
08:50	38.3	38.3	38.3	87	34.8	1	2	248	0.00	29.782 
08:55	38.3	38.3	38.3	87	34.8	1	2	248	0.00	29.782 
09:00	38.5	38.5	38.5	87	35.0	1	2	248	0.00	29.790 
09:05	38.6	38.6	38.6	87	35.1	1	3	248	0.00	29.790 
09:10	38.9	38.9	38.9	88	35.7	1	3	248	0.00	29.790 
09:15	39.2	39.2	39.2	88	35.9	2	7	225	0.00	29.801 
09:20	39.3	39.3	39.3	87	35.8	2	5	225	0.00	29.801 
09:25	39.5	39.5	39.5	87	36.0	2	5	270	0.00	29.801 
09:30	39.5	39.5	39.5	88	36.2	2	5	225	0.00	29.810 
09:35	39.6	39.6	39.6	88	36.3	1	3	270	0.00	29.810 
09:40	39.9	39.9	39.9	88	36.6	1	5	248	0.00	29.810 
09:45	40.3	40.3	40.3	88	37.0	2	4	248	0.00	29.822 
09:50	40.3	40.3	40.3	88	37.0	3	7	270	0.00	29.822 
09:55	40.5	40.5	40.5	88	37.2	1	3	270	0.00	29.822 
10:00	40.8	40.8	40.8	88	37.5	2	6	270	0.00	29.832 
10:05	40.8	40.8	40.8	87	37.2	1	4	248	0.00	29.832 
10:10	40.6	40.6	40.6	87	37.0	2	5	270	0.00	29.832 
10:15	40.6	40.6	40.6	87	37.0	1	4	248	0.00	29.836 
10:20	40.6	40.6	40.6	87	37.0	2	4	248	0.00	29.836 
10:25	40.6	40.6	40.6	86	36.7	1	5	248	0.00	29.836 
10:30	40.5	40.5	40.5	85	36.4	2	4	248	0.00	29.846 
10:35	40.6	40.6	40.6	85	36.4	1	3	338	0.00	29.846 
10:40	41.1	41.1	41.1	86	37.2	0	2	270	0.00	29.846 
10:45	41.2	41.2	41.2	84	36.7	2	5	315	0.00	29.850 
10:50	41.1	41.1	41.1	84	36.6	2	4	270	0.00	29.850 
10:55	40.6	40.6	40.6	86	36.7	1	3	292	0.00	29.850 
11:00	40.5	40.5	40.5	87	36.9	1	5	292	0.00	29.856 
11:05	40.5	40.5	40.5	87	36.9	2	5	292	0.00	29.856 
11:10	40.6	40.6	40.6	88	37.3	1	3	270	0.00	29.856 
11:15	40.6	40.6	40.6	87	37.0	2	5	270	0.00	29.861 
11:20	40.6	40.6	40.6	85	36.4	3	6	338	0.00	29.861 
11:25	40.5	40.5	40.5	84	36.1	2	5	292	0.00	29.861 
11:30	40.3	40.3	40.3	84	35.9	2	4	292	0.00	29.864 
11:35	40.3	40.3	40.3	84	35.9	2	5	270	0.00	29.864 
11:40	40.5	40.5	40.5	83	35.8	2	4	248	0.00	29.864 
11:45	40.5	40.5	40.5	82	35.4	2	5	270	0.00	29.865 
11:50	40.6	40.6	40.6	81	35.2	2	3	315	0.00	29.865 
11:55	40.5	40.5	40.5	81	35.1	2	4	270	0.00	29.865 
12:00	40.5	40.5	40.5	82	35.4	2	4	270	0.00	29.865 
12:05	40.5	40.5	40.5	83	35.8	2	4	248	0.00	29.865 
12:10	40.5	40.5	40.5	83	35.8	2	4	248	0.00	29.865 
12:15	40.6	40.6	40.6	83	35.8	1	3	270	0.00	29.866 
12:20	40.5	40.5	40.5	83	35.8	2	7	270	0.00	29.866 
12:25	40.3	40.3	40.3	83	35.6	3	6	270	0.00	29.866 
12:30	40.3	40.3	40.3	83	35.6	3	7	248	0.00	29.869 
12:35	40.2	40.2	40.2	83	35.5	3	7	270	0.00	29.869 
12:40	40.1	40.1	40.1	83	35.4	2	5	270	0.00	29.869 
12:45	40.2	40.2	40.2	84	35.8	2	5	248	0.00	29.873 
12:50	40.1	40.1	40.1	83	35.4	3	6	270	0.00	29.873 
12:55	40.1	40.1	40.1	84	35.7	2	5	270	0.00	29.873 
13:00	39.9	39.9	39.9	84	35.5	3	6	225	0.00	29.880 
13:05	39.8	39.8	39.8	84	35.4	2	5	270	0.00	29.880 
13:10	39.8	39.8	39.8	83	35.1	3	5	270	0.00	29.880 
13:15	39.6	39.6	39.6	83	34.9	3	5	270	0.00	29.884 
13:20	39.6	39.6	39.6	83	34.9	2	3	270	0.00	29.884 
13:25	39.9	39.9	39.9	83	35.2	1	5	270	0.00	29.884 
13:30	40.1	40.1	40.1	83	35.4	2	7	248	0.00	29.885 
13:35	40.1	40.1	40.1	82	35.1	2	6	248	0.00	29.885 
13:40	39.9	39.9	39.9	82	34.9	2	4	270	0.00	29.885 
13:45	39.9	39.9	39.9	82	34.9	2	3	292	0.00	29.896 
13:50	40.1	40.1	40.1	82	35.1	2	3	292	0.00	29.896 
13:55	39.9	39.9	39.9	80	34.2	3	10	292	0.00	29.896 
14:00	39.8	39.8	39.8	80	34.1	2	5	270	0.00	29.898 
14:05	39.9	39.9	39.9	80	34.2	2	7	270	0.00	29.898 
14:10	39.9	39.9	39.9	79	33.9	3	7	270	0.00	29.898 
14:15	39.8	39.8	39.8	79	33.8	2	4	270	0.00	29.899 
14:20	39.8	39.8	39.8	78	33.5	3	5	270	0.00	29.899 
14:25	39.8	39.8	39.8	80	34.1	2	6	248	0.00	29.899 
14:30	39.8	39.8	39.8	80	34.1	2	5	248	0.00	29.902 
14:35	39.8	39.8	39.8	80	34.1	2	5	248	0.00	29.902 
14:40	39.8	39.8	39.8	79	33.8	3	6	248	0.00	29.902 
14:45	39.9	39.9	39.9	79	33.9	3	6	248	0.00	29.914 
14:50	39.6	39.6	39.6	78	33.3	2	6	270	0.00	29.914 
14:55	39.6	39.6	39.6	79	33.6	1	6	270	0.00	29.914 
15:00	39.6	39.6	39.6	78	33.3	2	5	270	0.00	29.919 
15:05	39.5	39.5	39.5	78	33.2	2	5	248	0.00	29.919 
15:10	39.5	39.5	39.5	77	32.9	2	5	270	0.00	29.919 
15:15	39.6	39.6	39.6	77	33.0	1	4	248	0.00	29.924 
15:20	39.5	39.5	39.5	75	32.2	2	5	292	0.00	29.924 
15:25	39.3	39.3	39.3	76	32.4	2	5	270	0.00	29.924 
15:30	39.3	39.3	39.3	77	32.7	2	4	270	0.00	29.932 
15:35	39.3	39.3	39.3	78	33.0	2	5	248	0.00	29.932 
15:40	39.5	39.5	39.5	78	33.2	2	6	225	0.00	29.932 
15:45	39.5	39.5	39.5	75	32.2	3	14	248	0.00	29.937 
15:50	39.5	36.7	39.5	72	31.2	4	9	248	0.00	29.937 
15:55	39.5	39.5	39.5	72	31.2	3	9	248	0.00	29.937 
16:00	39.5	39.5	39.5	73	31.6	2	6	248	0.00	29.945 
16:05	39.3	39.3	39.3	73	31.4	3	6	248	0.00	29.945 
16:10	39.1	39.1	39.1	73	31.2	2	4	248	0.00	29.945 
16:15	38.8	38.8	38.8	73	30.9	2	7	270	0.00	29.954 
16:20	38.5	38.5	38.5	72	30.3	3	5	248	0.00	29.954 
16:25	38.3	38.3	38.3	73	30.4	2	4	248	0.00	29.954 
16:30	38.2	38.2	38.2	73	30.3	2	7	270	0.00	29.965 
16:35	38.0	38.0	38.0	73	30.1	2	4	292	0.00	29.965 
16:40	37.9	37.9	37.9	74	30.4	2	6	248	0.00	29.965 
16:45	37.8	37.8	37.8	74	30.3	2	6	248	0.00	29.969 
16:50	37.5	37.5	37.5	73	29.6	2	4	270	0.00	29.969 
16:55	37.3	37.3	37.3	73	29.5	2	4	270	0.00	29.969 
17:00	37.3	37.3	37.3	74	29.8	2	4	248	0.00	29.976 
17:05	37.3	37.3	37.3	74	29.8	1	4	270	0.00	29.976 
17:10	37.3	37.3	37.3	75	30.1	3	10	248	0.00	29.976 
17:15	37.3	37.3	37.3	75	30.1	2	6	248	0.00	29.980 
17:20	37.3	37.3	37.3	74	29.8	3	8	248	0.00	29.980 
17:25	37.2	37.2	37.2	74	29.7	3	8	248	0.00	29.980 
17:30	37.0	37.0	37.0	73	29.2	3	9	248	0.00	29.984 
17:35	36.9	33.7	36.9	73	29.1	4	9	270	0.00	29.984 
17:40	36.9	36.9	36.9	73	29.1	2	6	248	0.00	29.984 
17:45	36.8	36.8	36.8	73	29.0	2	8	270	0.00	29.991 
17:50	36.6	36.6	36.6	73	28.8	2	5	248	0.00	29.991 
17:55	36.6	36.6	36.6	74	29.1	3	7	270	0.00	29.991 
18:00	36.5	36.5	36.5	74	29.0	3	6	248	0.00	29.998 
18:05	36.3	33.0	36.3	74	28.8	4	11	248	0.00	29.998 
18:10	36.3	33.0	36.3	74	28.8	4	9	248	0.00	29.998 
18:15	36.2	36.2	36.2	74	28.7	3	7	248	0.00	30.010 
18:20	36.2	36.2	36.2	75	29.1	2	7	248	0.00	30.010 
18:25	36.0	36.0	36.0	75	28.9	3	10	248	0.00	30.010 
18:30	36.0	32.7	36.0	74	28.5	4	11	248	0.00	30.016 
18:35	35.9	35.9	35.9	73	28.1	3	9	248	0.00	30.016 
18:40	35.9	35.9	35.9	72	27.8	2	9	270	0.00	30.016 
18:45	35.8	35.8	35.8	73	28.0	1	5	270	0.00	30.023 
18:50	35.8	35.8	35.8	71	27.3	3	6	292	0.00	30.023 
18:55	35.5	32.1	35.5	68	26.0	4	10	270	0.00	30.023 
19:00	35.5	35.5	35.5	67	25.6	3	6	270	0.00	30.030 
19:05	35.3	35.3	35.3	67	25.5	3	7	248	0.00	30.030 
19:10	35.2	35.2	35.2	67	25.4	3	7	270	0.00	30.030 
19:15	35.2	35.2	35.2	67	25.4	2	6	270	0.00	30.034 
19:20	35.0	35.0	35.0	68	25.5	3	7	248	0.00	30.034 
19:25	35.0	31.5	35.0	67	25.2	4	6	270	0.00	30.034 
19:30	34.9	31.4	34.9	65	24.3	4	12	270	0.00	30.044 
19:35	34.7	34.7	34.7	65	24.2	3	10	248	0.00	30.044 
19:40	34.4	29.9	34.4	62	22.7	5	16	270	0.00	30.044 
19:45	34.3	34.3	34.3	63	23.0	3	7	248	0.00	30.047 
19:50	34.1	30.5	34.1	62	22.5	4	9	270	0.00	30.047 
19:55	34.1	30.5	34.1	62	22.5	4	7	270	0.00	30.047 
20:00	34.0	34.0	34.0	61	22.0	3	14	248	0.00	30.048 
20:05	34.0	30.4	34.0	61	22.0	4	12	248	0.00	30.048 
20:10	33.8	33.8	33.8	61	21.8	3	6	270	0.00	30.048 
20:15	33.8	33.8	33.8	61	21.8	3	9	248	0.00	30.048 
20:20	33.8	33.8	33.8	60	21.4	3	5	248	0.00	30.048 
20:25	33.7	33.7	33.7	59	20.9	3	7	248	0.00	30.048 
20:30	33.7	33.7	33.7	60	21.3	2	5	248	0.00	30.050 
20:35	33.5	33.5	33.5	59	20.7	3	5	248	0.00	30.050 
20:40	33.4	33.4	33.4	60	21.0	2	6	248	0.00	30.050 
20:45	33.4	33.4	33.4	60	21.0	3	7	248	0.00	30.053 
20:50	33.4	33.4	33.4	61	21.4	3	7	248	0.00	30.053 
20:55	33.2	33.2	33.2	61	21.2	3	9	248	0.00	30.053 
21:00	33.2	33.2	33.2	62	21.6	2	6	248	0.00	30.057 
21:05	33.1	33.1	33.1	63	21.9	2	5	270	0.00	30.057 
21:10	32.8	32.8	32.8	64	22.0	3	6	248	0.00	30.057 
21:15	32.7	32.7	32.7	65	22.3	2	7	248	0.00	30.060 
21:20	32.7	32.7	32.7	65	22.3	3	7	248	0.00	30.060 
21:25	32.5	32.5	32.5	66	22.4	2	6	270	0.00	30.060 
21:30	32.5	32.5	32.5	66	22.4	3	6	248	0.00	30.062 
21:35	32.4	32.4	32.4	67	22.7	2	5	248	0.00	30.062 
21:40	32.2	32.2	32.2	67	22.5	2	6	248	0.00	30.062 
21:45	31.9	31.9	31.9	67	22.2	1	5	248	0.00	30.068 
21:50	31.8	31.8	31.8	68	22.5	1	5	248	0.00	30.068 
21:55	31.8	31.8	31.8	68	22.5	2	7	248	0.00	30.068 
22:00	31.6	31.6	31.6	68	22.3	2	6	248	0.00	30.069 
22:05	31.6	31.6	31.6	68	22.3	2	6	248	0.00	30.069 
22:10	31.5	31.5	31.5	68	22.2	2	9	248	0.00	30.069 
22:15	31.3	31.3	31.3	68	22.0	2	6	248	0.00	30.075 
22:20	31.3	31.3	31.3	67	21.6	3	6	248	0.00	30.075 
22:25	31.2	31.2	31.2	67	21.5	3	7	248	0.00	30.075 
22:30	31.2	31.2	31.2	67	21.5	2	6	248	0.00	30.078 
22:35	31.0	31.0	31.0	67	21.3	2	5	248	0.00	30.078 
22:40	30.9	30.9	30.9	67	21.3	2	8	248	0.00	30.078 
22:45	30.9	30.9	30.9	67	21.3	3	10	248	0.00	30.080 
22:50	30.9	30.9	30.9	67	21.3	2	5	248	0.00	30.080 
22:55	30.7	30.7	30.7	67	21.1	2	6	248	0.00	30.080 
23:00	30.7	30.7	30.7	68	21.4	3	7	248	0.00	30.086 
23:05	30.6	30.6	30.6	68	21.3	2	4	248	0.00	30.086 
23:10	30.6	30.6	30.6	69	21.7	2	6	270	0.00	30.086 
23:15	30.4	30.4	30.4	69	21.5	2	7	225	0.00	30.093 
23:20	30.3	30.3	30.3	69	21.4	1	5	248	0.00	30.093 
23:25	30.1	30.1	30.1	69	21.2	2	6	248	0.00	30.093 
23:30	30.1	30.1	30.1	69	21.2	2	9	248	0.00	30.095 
23:35	30.0	30.0	30.0	70	21.4	2	7	248	0.00	30.095 
23:40	30.0	30.0	30.0	70	21.4	1	5	248	0.00	30.095 
23:45	29.8	29.8	29.8	71	21.6	1	4	248	0.00	30.097 
23:50	29.7	29.7	29.7	71	21.5	2	5	248	0.00	30.097 
23:55	29.7	29.7	29.7	71	21.5	2	6	248	0.00	30.097 

CoCoRaHS
IN-AL-39
A2 Web Hosting
Creative Commons License
GoDaddy
search engine by freefind advanced

loaded 2018-11-15 15:37:55 • last modified 2010-11-18 10:43:29
Privacy PolicyDisclaimer
• wx.awcolley.com is powered by PmWiki v.2002016 •
• all content (unless otherwise noted) © 2018 A W Colley